Time;durP1;ratioP1;P1;durP2;ratioP2;P2;SDS_P1;SDS_P2;PMS_P1;PMS_P2;Temp;Humidity;BMP_temperature;BMP_pressure;BME280_temperature;BME280_humidity;BME280_pressure;Samples;Min_cycle;Max_cycle;Signal;HPM_P1;HPM_P2
2023/01/05 00:01:28;;;;;;;65.15;44.75;;;;;;;9.05;73.49;100469.25;5054441;28;20033;-77
2023/01/05 00:03:53;;;;;;;63.85;48.65;;;;;;;8.80;73.10;100462.81;5054024;28;20079;-77
2023/01/05 00:06:19;;;;;;;72.22;51.80;;;;;;;9.11;73.52;100490.56;5054186;28;20055;-78
2023/01/05 00:08:45;;;;;;;64.78;48.72;;;;;;;9.11;73.02;100510.81;5054093;28;20033;-78
2023/01/05 00:22:32;;;;;;;57.67;42.05;;;;;;;8.81;73.54;100446.84;5054237;28;20035;-78
2023/01/05 00:25:13;;;;;;;55.90;43.08;;;;;;;8.80;73.72;100452.28;5054034;28;20032;-77
2023/01/05 00:27:44;;;;;;;51.17;41.60;;;;;;;9.00;73.54;100479.38;5053993;28;20121;-77
2023/01/05 00:30:12;;;;;;;52.40;41.92;;;;;;;8.99;73.37;100486.47;5052513;28;20041;-77
2023/01/05 00:32:38;;;;;;;50.10;42.00;;;;;;;8.99;73.69;100470.66;5053962;28;20048;-78
2023/01/05 00:35:04;;;;;;;57.15;45.83;;;;;;;8.22;73.76;100362.94;5052470;28;20033;-78
2023/01/05 00:37:31;;;;;;;58.33;45.15;;;;;;;8.96;73.78;100476.22;5053523;28;20151;-77
2023/01/05 00:39:57;;;;;;;56.30;44.63;;;;;;;8.81;73.72;100452.13;5053541;28;20021;-78
2023/01/05 00:42:23;;;;;;;56.28;41.58;;;;;;;7.90;73.49;100308.88;5052338;28;20055;-77
2023/01/05 00:44:48;;;;;;;54.35;43.83;;;;;;;8.71;73.59;100430.28;5053662;28;20032;-77
2023/01/05 00:47:14;;;;;;;49.28;39.72;;;;;;;7.81;73.55;100291.31;5052216;28;20021;-78
2023/01/05 00:49:39;;;;;;;49.90;41.13;;;;;;;8.76;73.61;100435.94;5053415;28;20029;-77
2023/01/05 00:52:05;;;;;;;51.28;39.92;;;;;;;8.80;73.54;100436.47;5052950;28;20024;-78
2023/01/05 00:54:31;;;;;;;50.30;40.25;;;;;;;8.67;73.55;100428.91;5052394;28;20021;-78
2023/01/05 00:56:56;;;;;;;54.20;42.38;;;;;;;7.99;73.89;100328.22;5053376;28;20516;-77
2023/01/05 00:59:22;;;;;;;50.42;41.10;;;;;;;8.69;73.42;100418.22;5053268;28;20027;-78
2023/01/05 01:01:49;;;;;;;60.17;45.47;;;;;;;8.36;73.62;100373.03;5051803;28;20486;-78
2023/01/05 01:04:16;;;;;;;59.33;46.60;;;;;;;8.88;73.61;100447.94;5053203;28;20025;-78
2023/01/05 01:06:41;;;;;;;58.53;46.97;;;;;;;8.87;73.68;100448.09;5053255;28;20048;-77
2023/01/05 01:09:08;;;;;;;70.70;50.58;;;;;;;8.63;73.71;100417.00;5053399;28;20090;-78
2023/01/05 01:11:33;;;;;;;73.28;58.33;;;;;;;8.76;73.67;100425.41;5053055;28;20557;-78
2023/01/05 01:13:58;;;;;;;71.95;51.45;;;;;;;8.81;73.84;100435.50;5053346;28;20109;-77
2023/01/05 01:16:24;;;;;;;74.63;56.72;;;;;;;7.96;73.36;100291.72;5053168;28;20040;-77
2023/01/05 01:18:50;;;;;;;76.13;58.95;;;;;;;8.62;73.61;100398.72;5052780;28;20044;-78
2023/01/05 01:21:15;;;;;;;73.88;55.33;;;;;;;8.79;73.52;100413.75;5052737;28;20516;-78
2023/01/05 01:23:42;;;;;;;78.97;60.50;;;;;;;8.76;73.84;100422.78;5052787;28;20021;-77
2023/01/05 01:26:10;;;;;;;73.95;54.25;;;;;;;8.37;73.72;100352.81;5052732;28;20028;-77
2023/01/05 01:28:35;;;;;;;71.05;52.35;;;;;;;7.76;73.42;100266.44;5052753;28;20082;-78
2023/01/05 01:31:01;;;;;;;70.07;53.17;;;;;;;8.49;73.47;100396.41;5052571;28;20032;-78
2023/01/05 01:33:28;;;;;;;66.72;50.83;;;;;;;8.69;73.65;100411.16;5051087;28;20486;-77
2023/01/05 01:35:54;;;;;;;71.10;52.15;;;;;;;8.59;73.74;100391.94;5052256;28;20051;-78
2023/01/05 01:38:19;;;;;;;66.25;50.00;;;;;;;8.45;73.54;100380.06;5052357;28;20502;-77
2023/01/05 01:40:46;;;;;;;73.60;54.30;;;;;;;8.68;73.62;100404.22;5051169;28;20120;-77
2023/01/05 01:43:14;;;;;;;67.07;52.42;;;;;;;8.66;73.66;100398.28;5052308;28;20025;-77
2023/01/05 01:45:39;;;;;;;65.40;49.25;;;;;;;8.53;73.50;100374.91;5052393;28;20112;-78
2023/01/05 01:48:06;;;;;;;64.68;53.13;;;;;;;8.65;73.58;100414.22;5052270;28;20035;-78
2023/01/05 01:50:40;;;;;;;58.35;46.80;;;;;;;7.54;73.45;100234.25;5050921;28;20463;-78
2023/01/05 01:53:28;;;;;;;64.55;51.67;;;;;;;8.56;73.22;100395.69;5052331;28;20036;-77
2023/01/05 01:55:56;;;;;;;66.43;50.55;;;;;;;8.38;73.47;100371.09;5052304;28;20033;-77
2023/01/05 01:58:24;;;;;;;71.20;54.85;;;;;;;8.56;73.47;100394.84;5052703;28;20021;-77
2023/01/05 02:00:50;;;;;;;63.40;50.88;;;;;;;8.51;73.40;100383.94;5052400;28;20035;-76
2023/01/05 02:03:15;;;;;;;57.42;43.67;;;;;;;8.50;73.34;100383.09;5052897;28;20103;-78
2023/01/05 02:05:41;;;;;;;58.40;45.42;;;;;;;7.81;73.42;100275.56;5051911;28;20021;-77
2023/01/05 02:08:12;;;;;;;56.70;43.92;;;;;;;7.65;73.09;100259.53;5052090;28;20086;-77
2023/01/05 02:10:38;;;;;;;55.42;43.67;;;;;;;8.41;73.15;100378.72;5051959;28;20032;-78
2023/01/05 02:13:06;;;;;;;55.20;41.42;;;;;;;8.42;73.45;100379.53;5051888;28;20433;-77
2023/01/05 02:15:54;;;;;;;52.83;40.33;;;;;;;8.17;72.93;100337.03;5051777;28;20108;-77
2023/01/05 02:18:32;;;;;;;51.78;39.22;;;;;;;8.29;73.31;100372.75;5050668;28;20032;-78
2023/01/05 02:21:36;;;;;;;51.88;40.05;;;;;;;8.24;72.86;100359.19;5051670;28;20115;-78
2023/01/05 02:24:14;;;;;;;55.88;43.17;;;;;;;8.19;72.89;100353.53;5051576;28;20555;-78
2023/01/05 02:26:59;;;;;;;54.45;42.80;;;;;;;8.18;73.01;100356.31;5051497;28;20053;-78
2023/01/05 02:29:58;;;;;;;55.03;43.28;;;;;;;8.12;72.89;100357.69;5050240;28;20032;-78
2023/01/05 02:32:42;;;;;;;51.33;37.95;;;;;;;8.07;72.87;100351.19;5051513;28;20028;-77
2023/01/05 02:35:25;;;;;;;49.47;37.67;;;;;;;8.07;73.26;100352.03;5051584;28;20032;-77
2023/01/05 02:37:58;;;;;;;83.63;57.13;;;;;;;8.05;73.48;100345.25;5051421;28;20044;-77
2023/01/05 02:40:31;;;;;;;65.50;47.30;;;;;;;7.65;73.09;100285.81;5051281;28;20033;-77
2023/01/05 02:42:58;;;;;;;57.30;41.63;;;;;;;8.07;72.95;100344.13;5051351;28;20032;-78
2023/01/05 02:45:24;;;;;;;58.42;46.30;;;;;;;8.08;72.88;100342.34;5051335;28;20079;-78
2023/01/05 02:47:50;;;;;;;60.10;42.28;;;;;;;7.83;73.13;100293.81;5051356;28;20028;-76
2023/01/05 02:50:26;;;;;;;52.15;40.97;;;;;;;7.91;72.96;100309.72;5052808;28;20033;-77
2023/01/05 02:53:13;;;;;;;47.33;38.83;;;;;;;8.00;72.95;100323.81;5056162;28;20029;-78
2023/01/05 02:55:44;;;;;;;49.35;37.78;;;;;;;7.98;72.78;100322.16;5051931;28;20029;-77
2023/01/05 02:58:16;;;;;;;44.63;36.97;;;;;;;7.30;72.78;100211.03;5051383;28;20041;-77
2023/01/05 03:00:54;;;;;;;50.22;38.22;;;;;;;6.82;72.69;100134.97;5051244;28;20029;-76
2023/01/05 03:03:23;;;;;;;49.95;38.53;;;;;;;7.93;72.86;100305.13;5051314;28;20128;-78
2023/01/05 03:05:55;;;;;;;52.80;39.72;;;;;;;7.95;72.62;100321.59;5051225;28;20047;-77
2023/01/05 03:08:23;;;;;;;53.05;41.58;;;;;;;7.94;73.17;100320.78;5051003;28;20564;-78
2023/01/05 03:14:17;;;;;;;56.33;40.78;;;;;;;7.94;72.75;100314.69;5048861;28;20056;-78
2023/01/05 03:16:45;;;;;;;60.55;40.83;;;;;;;7.85;72.65;100297.97;5050518;28;20032;-78
2023/01/05 03:36:15;;;;;;;44.83;34.65;;;;;;;7.75;72.94;100288.44;5054895;28;20512;-77
2023/01/05 03:38:44;;;;;;;48.97;38.25;;;;;;;7.87;73.02;100314.44;5053301;28;20029;-77
2023/01/05 03:41:14;;;;;;;43.70;36.35;;;;;;;7.38;72.67;100241.88;5054659;28;20024;-77
2023/01/05 03:43:42;;;;;;;48.28;38.75;;;;;;;7.41;72.41;100233.69;5054758;28;20062;-76
2023/01/05 03:46:15;;;;;;;50.10;39.42;;;;;;;7.87;72.77;100301.28;5053447;28;20013;-77
2023/01/05 03:48:41;;;;;;;48.67;38.70;;;;;;;7.68;72.75;100271.56;5054693;28;20029;-77
2023/01/05 03:51:06;;;;;;;41.58;32.60;;;;;;;7.84;73.12;100288.41;5054519;28;20035;-77
2023/01/05 03:53:32;;;;;;;41.90;33.85;;;;;;;8.02;72.47;100295.56;5054314;28;20512;-76
2023/01/05 03:55:57;;;;;;;43.45;36.72;;;;;;;7.49;72.35;100202.31;5054233;28;20044;-77
2023/01/05 03:58:23;;;;;;;48.33;37.97;;;;;;;7.30;71.70;100142.75;5054330;28;20033;-77
2023/01/05 04:00:48;;;;;;;47.33;37.65;;;;;;;8.15;71.50;100282.91;5054385;28;20029;-77
2023/01/05 04:03:13;;;;;;;48.83;37.47;;;;;;;7.90;72.09;100255.47;5054509;28;20029;-77
2023/01/05 04:05:39;;;;;;;45.30;36.53;;;;;;;8.03;72.20;100282.28;5054458;28;20021;-77
2023/01/05 04:08:05;;;;;;;44.15;36.40;;;;;;;7.34;71.83;100175.66;5054217;28;20056;-77
2023/01/05 04:10:30;;;;;;;49.70;38.67;;;;;;;7.85;72.27;100261.16;5052931;28;20025;-77
2023/01/05 04:12:56;;;;;;;43.55;35.13;;;;;;;7.84;71.64;100261.28;5054005;28;20064;-77
2023/01/05 04:15:21;;;;;;;48.83;39.40;;;;;;;7.84;72.03;100262.13;5053875;28;20108;-76
2023/01/05 04:17:47;;;;;;;50.17;37.50;;;;;;;7.48;72.11;100216.44;5054090;28;20035;-77
2023/01/05 04:20:12;;;;;;;46.75;36.50;;;;;;;7.40;71.76;100197.88;5052564;28;20021;-77
2023/01/05 04:22:38;;;;;;;47.85;37.75;;;;;;;6.91;72.07;100131.50;5053976;28;20029;-77
2023/01/05 04:25:03;;;;;;;49.92;37.38;;;;;;;6.98;71.74;100143.09;5052677;28;20036;-77
2023/01/05 04:27:29;;;;;;;47.50;38.08;;;;;;;7.42;71.95;100214.34;5052235;28;20079;-77
2023/01/05 04:29:54;;;;;;;44.28;35.67;;;;;;;7.78;72.17;100273.22;5053799;28;20029;-77
2023/01/05 04:32:20;;;;;;;46.67;36.10;;;;;;;7.72;71.84;100260.63;5053731;28;20021;-76
2023/01/05 04:34:45;;;;;;;46.42;35.75;;;;;;;7.67;71.96;100265.50;5053880;28;20039;-77
2023/01/05 04:37:10;;;;;;;49.28;37.70;;;;;;;7.69;71.91;100274.06;5053416;28;20029;-77
2023/01/05 04:39:36;;;;;;;51.90;40.22;;;;;;;7.69;72.10;100267.97;5053606;28;20117;-76
2023/01/05 04:42:01;;;;;;;49.15;38.28;;;;;;;7.68;72.23;100282.91;5053504;28;20386;-77
2023/01/05 04:44:27;;;;;;;49.70;38.88;;;;;;;6.74;71.91;100116.47;5053373;28;20031;-77
2023/01/05 04:46:52;;;;;;;64.15;49.03;;;;;;;7.47;72.28;100238.44;5053488;28;20087;-77
2023/01/05 04:49:18;;;;;;;61.78;47.75;;;;;;;7.64;71.73;100260.53;5053316;28;20502;-76
2023/01/05 04:51:43;;;;;;;66.47;49.40;;;;;;;6.74;71.76;100131.38;5053165;28;20064;-77
2023/01/05 04:54:09;;;;;;;58.33;42.78;;;;;;;7.59;72.14;100258.31;5051898;28;20031;-77
2023/01/05 04:56:34;;;;;;;55.65;43.33;;;;;;;7.14;71.97;100187.16;5051816;28;20029;-77
2023/01/05 04:58:59;;;;;;;64.20;49.40;;;;;;;7.29;71.96;100214.63;5053421;28;20029;-77
2023/01/05 05:01:25;;;;;;;61.30;44.88;;;;;;;7.16;72.28;100190.47;5053236;28;20036;-77
2023/01/05 05:03:50;;;;;;;66.63;51.53;;;;;;;7.58;71.66;100258.47;5053277;28;20079;-76
2023/01/05 05:06:16;;;;;;;79.82;62.65;;;;;;;6.91;71.67;100163.00;5053326;28;20025;-76
2023/01/05 05:08:42;;;;;;;69.07;54.50;;;;;;;7.49;72.06;100257.50;5052873;28;20490;-76
2023/01/05 05:11:07;;;;;;;81.80;60.65;;;;;;;7.46;72.32;100272.72;5052863;28;20028;-76
2023/01/05 05:13:32;;;;;;;87.32;60.10;;;;;;;7.39;72.08;100264.53;5052868;28;20135;-77
2023/01/05 05:15:58;;;;;;;92.43;68.03;;;;;;;6.50;72.10;100147.50;5051648;28;20025;-76
2023/01/05 05:18:24;;;;;;;86.47;67.82;;;;;;;7.14;72.69;100223.91;5051493;28;20119;-77
2023/01/05 05:20:51;;;;;;;102.57;75.88;;;;;;;6.38;72.12;100103.03;5052813;28;20024;-76
2023/01/05 05:23:17;;;;;;;86.45;62.65;;;;;;;7.26;72.21;100277.13;5052819;28;20056;-77
2023/01/05 05:25:43;;;;;;;68.97;52.00;;;;;;;6.46;72.24;100120.72;5053022;28;20017;-76
2023/01/05 05:28:08;;;;;;;71.00;53.58;;;;;;;7.38;71.65;100262.88;5053009;28;20455;-77
2023/01/05 05:30:34;;;;;;;68.30;51.70;;;;;;;7.21;71.45;100242.56;5052868;28;20055;-76
2023/01/05 05:32:59;;;;;;;73.35;52.28;;;;;;;7.24;72.30;100252.81;5053019;28;20029;-76
2023/01/05 05:35:24;;;;;;;81.05;58.00;;;;;;;7.24;72.16;100253.63;5052731;28;20071;-76
2023/01/05 05:37:50;;;;;;;90.65;63.80;;;;;;;7.12;72.06;100252.13;5051496;28;20025;-76
2023/01/05 05:40:15;;;;;;;92.95;70.00;;;;;;;6.32;72.13;100121.94;5052160;28;20082;-76
2023/01/05 05:42:41;;;;;;;94.82;70.88;;;;;;;6.47;71.84;100151.22;5052495;28;20021;-76
2023/01/05 05:45:06;;;;;;;90.50;66.43;;;;;;;6.28;71.57;100120.56;5051602;28;20107;-76
2023/01/05 05:47:32;;;;;;;92.45;64.63;;;;;;;7.22;72.30;100275.75;5052598;28;20053;-77
2023/01/05 05:49:57;;;;;;;97.18;69.78;;;;;;;7.17;71.90;100276.16;5052067;28;20025;-77
2023/01/05 05:52:23;;;;;;;99.15;74.95;;;;;;;7.14;72.13;100271.19;5050778;28;20803;-77
2023/01/05 05:54:48;;;;;;;84.43;60.95;;;;;;;6.98;72.23;100258.59;5052057;28;20086;-77
2023/01/05 05:57:14;;;;;;;73.32;58.55;;;;;;;6.33;71.96;100159.50;5052063;28;20017;-77
2023/01/05 05:59:39;;;;;;;80.60;63.90;;;;;;;7.05;71.79;100273.81;5051975;28;20486;-77
2023/01/05 06:02:04;;;;;;;81.18;60.28;;;;;;;6.13;71.85;100137.66;5052000;28;20021;-77
2023/01/05 06:04:30;;;;;;;77.00;59.33;;;;;;;7.00;71.95;100274.22;5050679;28;20033;-76
2023/01/05 06:06:55;;;;;;;74.97;58.22;;;;;;;7.01;71.57;100268.00;5051938;28;20075;-76
2023/01/05 06:09:21;;;;;;;70.82;55.17;;;;;;;6.41;71.64;100174.56;5052072;28;20075;-78
2023/01/05 06:11:46;;;;;;;78.10;55.22;;;;;;;6.08;71.70;100147.72;5051989;28;20033;-78
2023/01/05 06:14:12;;;;;;;73.03;57.47;;;;;;;6.98;71.46;100282.22;5052011;28;20062;-78
2023/01/05 06:16:37;;;;;;;79.03;58.92;;;;;;;6.85;71.78;100255.41;5051585;28;20100;-77
2023/01/05 06:19:02;;;;;;;75.20;55.78;;;;;;;5.84;71.52;100073.81;5059561;28;20075;-78
2023/01/05 06:21:28;;;;;;;68.00;54.97;;;;;;;6.95;71.63;100252.81;5057337;28;20047;-78
2023/01/05 06:23:54;;;;;;;77.97;57.88;;;;;;;5.88;71.42;100083.88;5051683;28;20559;-78
2023/01/05 06:26:19;;;;;;;71.97;55.33;;;;;;;6.75;71.24;100211.75;5051468;28;20052;-78
2023/01/05 06:28:44;;;;;;;71.30;55.50;;;;;;;6.68;71.46;100207.03;5049853;28;20104;-78
2023/01/05 06:31:10;;;;;;;75.65;59.15;;;;;;;6.94;71.05;100230.16;5055146;28;20425;-78
2023/01/05 06:33:35;;;;;;;73.47;59.25;;;;;;;6.82;70.82;100216.31;5051669;28;20032;-77
2023/01/05 06:36:01;;;;;;;85.93;67.55;;;;;;;6.83;70.72;100220.59;5051642;28;20535;-78
2023/01/05 06:38:26;;;;;;;79.25;61.50;;;;;;;6.07;70.86;100103.28;5050096;28;20565;-77
2023/01/05 06:40:53;;;;;;;80.68;63.22;;;;;;;6.92;71.06;100226.81;5051752;28;20033;-78
2023/01/05 06:43:19;;;;;;;78.20;64.65;;;;;;;5.83;70.74;100044.16;5051588;28;20048;-78
2023/01/05 06:45:44;;;;;;;84.75;63.90;;;;;;;6.96;70.83;100239.53;5051372;28;20055;-78
2023/01/05 06:48:09;;;;;;;79.68;61.72;;;;;;;6.96;70.88;100239.53;5050007;28;20024;-78
2023/01/05 06:50:35;;;;;;;90.13;67.97;;;;;;;6.91;70.49;100233.88;5048825;28;20036;-78
2023/01/05 06:53:00;;;;;;;86.35;68.40;;;;;;;6.93;70.82;100238.97;5040585;28;20481;-78
2023/01/05 06:55:26;;;;;;;94.40;72.88;;;;;;;5.97;70.68;100091.00;5052599;28;20036;-77
2023/01/05 06:57:51;;;;;;;84.57;66.45;;;;;;;6.89;70.68;100242.84;5044379;28;20021;-78
2023/01/05 07:00:17;;;;;;;87.90;68.45;;;;;;;6.31;70.83;100135.19;5036580;28;20020;-78
2023/01/05 07:02:43;;;;;;;86.40;66.25;;;;;;;6.32;70.76;100140.31;5050135;28;20037;-78
2023/01/05 07:05:09;;;;;;;76.28;57.38;;;;;;;6.89;70.54;100233.19;5049937;28;20021;-78
2023/01/05 07:07:34;;;;;;;76.32;57.30;;;;;;;6.59;70.73;100196.53;5049089;28;20046;-78
2023/01/05 07:10:00;;;;;;;72.05;56.35;;;;;;;6.75;70.53;100212.59;5039908;28;20013;-78
2023/01/05 07:12:25;;;;;;;66.78;51.55;;;;;;;6.91;69.78;100233.03;5050295;28;20049;-78
2023/01/05 07:14:51;;;;;;;73.43;57.30;;;;;;;6.94;69.91;100233.59;5048497;28;20508;-78
2023/01/05 07:17:16;;;;;;;84.63;62.15;;;;;;;6.99;69.69;100238.44;5050016;28;20144;-78
2023/01/05 07:19:42;;;;;;;84.28;63.45;;;;;;;7.01;70.13;100268.84;5048937;28;20029;-78
2023/01/05 07:22:08;;;;;;;80.55;60.95;;;;;;;6.95;69.81;100210.81;5050923;28;20029;-78
2023/01/05 07:24:33;;;;;;;84.15;67.15;;;;;;;5.59;69.40;100015.69;5050842;28;20417;-78
2023/01/05 07:26:59;;;;;;;80.47;61.22;;;;;;;7.10;69.72;100232.22;5050346;28;20108;-78
2023/01/05 07:29:25;;;;;;;73.20;56.17;;;;;;;7.01;69.95;100200.56;5049167;28;20029;-78
2023/01/05 07:31:51;;;;;;;82.68;59.70;;;;;;;7.03;69.43;100196.97;5050561;28;20029;-78
2023/01/05 07:34:20;;;;;;;72.90;53.75;;;;;;;7.19;69.51;100223.50;5050532;28;20021;-77
2023/01/05 07:36:46;;;;;;;78.85;56.42;;;;;;;6.29;70.02;100055.84;5050589;28;20039;-78
2023/01/05 07:39:11;;;;;;;94.65;68.68;;;;;;;7.25;69.93;100225.56;5050205;28;20116;-78
2023/01/05 07:41:37;;;;;;;87.55;65.95;;;;;;;7.29;69.84;100212.00;5049566;28;20099;-77
2023/01/05 07:44:02;;;;;;;69.82;54.88;;;;;;;7.27;69.32;100200.81;5050064;28;20104;-78
2023/01/05 07:46:28;;;;;;;74.05;57.65;;;;;;;6.63;69.34;100091.16;5050403;28;20021;-78
2023/01/05 07:48:53;;;;;;;66.95;51.60;;;;;;;7.24;69.26;100174.00;5050454;28;20024;-78
2023/01/05 07:51:18;;;;;;;79.18;60.92;;;;;;;7.44;69.68;100201.09;5050388;28;20029;-78
2023/01/05 07:53:44;;;;;;;81.75;66.10;;;;;;;7.45;69.87;100198.31;5050369;28;20084;-78
2023/01/05 07:56:10;;;;;;;86.03;66.68;;;;;;;7.08;70.15;100139.63;5049771;28;20035;-77
2023/01/05 07:58:36;;;;;;;86.93;70.00;;;;;;;6.58;69.73;100034.84;5050662;28;20032;-78
2023/01/05 08:01:04;;;;;;;87.93;69.45;;;;;;;7.52;69.53;100174.94;5046697;28;20020;-78
2023/01/05 08:03:29;;;;;;;90.40;73.85;;;;;;;7.67;69.86;100181.38;5053068;28;20025;-78
2023/01/05 08:05:55;;;;;;;94.97;73.70;;;;;;;7.40;69.49;100134.00;5054140;28;20059;-77
2023/01/05 08:08:20;;;;;;;85.95;65.07;;;;;;;7.77;69.82;100176.09;5054227;28;20100;-78
2023/01/05 08:10:45;;;;;;;88.53;69.78;;;;;;;7.75;69.27;100157.00;5054187;28;20028;-77
2023/01/05 08:15:56;;;;;;;86.93;68.50;;;;;;;6.96;69.26;100026.06;5053655;28;20032;-77
2023/01/05 08:18:22;;;;;;;87.40;66.75;;;;;;;7.90;69.56;100163.44;5053992;28;20025;-77
2023/01/05 08:20:59;;;;;;;85.93;67.53;;;;;;;7.41;69.64;100081.34;5053564;28;20021;-77
2023/01/05 08:23:27;;;;;;;88.38;68.65;;;;;;;8.07;69.21;100172.34;5053310;28;20118;-77
2023/01/05 08:25:53;;;;;;;94.63;74.20;;;;;;;7.94;69.47;100138.50;5053491;28;20017;-76
2023/01/05 08:28:19;;;;;;;91.13;73.88;;;;;;;7.88;69.72;100115.44;5054503;28;20110;-77
2023/01/05 08:30:45;;;;;;;84.18;68.00;;;;;;;7.27;69.86;100016.13;5053220;28;20521;-78
2023/01/05 08:33:10;;;;;;;122.88;96.60;;;;;;;8.11;70.08;100136.91;5053390;28;20029;-77
2023/01/05 08:35:40;;;;;;;93.13;74.68;;;;;;;7.71;70.08;100082.06;5052316;28;20025;-78
2023/01/05 08:38:06;;;;;;;92.10;72.75;;;;;;;8.39;70.15;100157.00;5038995;28;20025;-78
2023/01/05 08:40:31;;;;;;;73.00;57.50;;;;;;;7.99;70.33;100078.44;5047716;28;20026;-78
2023/01/05 08:42:57;;;;;;;70.15;56.75;;;;;;;8.51;70.88;100155.78;5051300;28;20036;-77
2023/01/05 08:45:22;;;;;;;74.40;56.72;;;;;;;7.64;70.20;100000.34;5051182;28;20036;-77
2023/01/05 08:47:48;;;;;;;77.45;59.25;;;;;;;8.22;70.36;100084.94;5045977;28;20036;-78
2023/01/05 08:50:13;;;;;;;74.82;58.38;;;;;;;8.65;70.06;100140.44;5052573;28;20028;-78
2023/01/05 08:52:39;;;;;;;73.45;54.92;;;;;;;8.39;70.22;100078.06;5052865;28;20028;-77
2023/01/05 08:55:06;;;;;;;69.63;49.70;;;;;;;8.60;70.38;100107.50;5053051;28;20100;-77
2023/01/05 08:57:32;;;;;;;59.90;45.95;;;;;;;8.74;70.22;100121.13;5053525;28;20025;-77
2023/01/05 08:59:58;;;;;;;68.72;47.55;;;;;;;8.76;70.61;100119.16;5054402;28;20115;-77
2023/01/05 09:02:24;;;;;;;62.92;46.40;;;;;;;8.47;70.51;100064.97;5041377;28;20112;-77
2023/01/05 09:04:50;;;;;;;63.15;50.15;;;;;;;8.11;70.65;99994.88;5047105;28;20121;-76
2023/01/05 09:07:15;;;;;;;61.22;46.67;;;;;;;8.72;70.43;100084.41;5045433;28;20486;-77
2023/01/05 09:09:41;;;;;;;62.67;46.47;;;;;;;8.87;70.55;100089.94;5044066;28;20025;-76
2023/01/05 09:12:06;;;;;;;58.55;45.33;;;;;;;8.94;70.83;100098.09;5051946;28;20095;-77
2023/01/05 09:14:31;;;;;;;56.33;42.30;;;;;;;8.41;70.65;99997.16;5052393;28;20485;-77
2023/01/05 09:16:57;;;;;;;58.97;43.92;;;;;;;8.69;70.53;100025.97;5052832;28;20489;-76
2023/01/05 09:19:23;;;;;;;59.60;45.10;;;;;;;9.09;70.60;100078.09;5051401;28;20044;-77
2023/01/05 09:21:49;;;;;;;60.10;44.65;;;;;;;9.09;70.87;100076.31;5052045;28;20025;-77
2023/01/05 09:24:14;;;;;;;58.92;44.35;;;;;;;8.96;70.92;100035.56;5047033;28;20569;-77
2023/01/05 09:26:41;;;;;;;59.53;43.83;;;;;;;8.27;70.97;99951.16;5037750;28;20040;-76
2023/01/05 09:29:06;;;;;;;57.42;42.72;;;;;;;8.32;70.94;99915.66;5051607;28;20029;-77
2023/01/05 09:31:32;;;;;;;54.90;42.50;;;;;;;9.22;71.00;100045.09;5052390;28;20513;-76
2023/01/05 09:33:58;;;;;;;51.33;41.45;;;;;;;9.29;71.18;100055.00;5052224;28;20031;-76
2023/01/05 09:36:27;;;;;;;50.22;38.75;;;;;;;9.34;71.04;100055.34;5051012;28;20017;-77
2023/01/05 09:38:54;;;;;;;51.15;39.65;;;;;;;9.38;70.79;100030.34;5052398;28;20088;-77
2023/01/05 09:41:26;;;;;;;50.05;38.05;;;;;;;8.64;71.15;99896.63;5051797;28;20021;-77
2023/01/05 09:43:56;;;;;;;45.75;35.97;;;;;;;9.54;71.12;100017.22;5050139;28;20028;-77
2023/01/05 09:46:37;;;;;;;47.90;36.67;;;;;;;9.61;71.23;100007.69;5046715;28;20108;-77
2023/01/05 09:49:05;;;;;;;41.97;33.45;;;;;;;9.49;70.78;99964.16;5050223;28;20108;-77
2023/01/05 09:51:32;;;;;;;47.03;34.35;;;;;;;8.84;70.74;99856.75;5051320;28;20600;-77
2023/01/05 09:53:59;;;;;;;43.38;32.70;;;;;;;9.82;70.63;99994.91;5032232;28;20042;-77
2023/01/05 09:56:31;;;;;;;40.88;31.48;;;;;;;9.74;70.68;99965.91;5032187;28;20044;-78
2023/01/05 09:59:06;;;;;;;41.63;32.92;;;;;;;9.94;70.13;99974.31;5036569;28;20033;-77
2023/01/05 10:01:35;;;;;;;43.22;33.42;;;;;;;9.99;70.05;99974.66;5051213;28;20049;-78
2023/01/05 10:04:04;;;;;;;41.88;32.33;;;;;;;9.23;69.64;99850.97;5051588;28;20028;-77
2023/01/05 10:06:34;;;;;;;34.55;28.63;;;;;;;10.17;69.30;99961.31;5051180;28;20105;-77
2023/01/05 10:09:03;;;;;;;36.53;29.17;;;;;;;10.23;69.38;99957.22;5040412;28;20021;-78
2023/01/05 10:14:57;;;;;;;40.30;31.70;;;;;;;10.33;69.30;99944.69;5051365;28;20099;-77
2023/01/05 10:17:25;;;;;;;43.28;31.13;;;;;;;10.06;69.36;99883.31;5051662;28;20028;-77
2023/01/05 10:19:50;;;;;;;43.80;34.80;;;;;;;10.53;68.58;99946.00;5048279;28;20425;-77
2023/01/05 10:22:34;;;;;;;37.33;29.10;;;;;;;10.63;68.47;99936.06;5041642;28;20021;-77
2023/01/05 10:25:12;;;;;;;34.03;28.65;;;;;;;10.75;68.39;99933.91;5039633;28;20028;-78
2023/01/05 10:27:46;;;;;;;31.92;26.48;;;;;;;10.85;67.88;99923.13;5035315;28;20112;-77
2023/01/05 10:30:18;;;;;;;33.63;26.48;;;;;;;10.88;67.79;99918.34;5034798;28;20039;-77
2023/01/05 10:32:54;;;;;;;30.85;25.58;;;;;;;10.92;67.30;99906.44;5041726;28;20116;-77
2023/01/05 10:35:19;;;;;;;31.33;25.27;;;;;;;10.96;67.53;99891.88;5033967;28;20029;-78
2023/01/05 10:38:18;;;;;;;30.33;25.73;;;;;;;11.01;67.00;99886.06;5031015;28;20036;-78
2023/01/05 10:41:00;;;;;;;29.02;25.17;;;;;;;10.66;66.54;99813.44;5031009;28;20029;-77
2023/01/05 10:43:45;;;;;;;32.75;25.80;;;;;;;11.09;66.17;99863.06;5030256;28;20029;-77
2023/01/05 10:46:12;;;;;;;30.70;24.35;;;;;;;11.14;65.96;99858.09;5050121;28;20041;-78
2023/01/05 10:48:39;;;;;;;29.13;23.35;;;;;;;11.09;65.92;99834.00;5051359;28;20125;-78
2023/01/05 10:51:06;;;;;;;30.52;25.17;;;;;;;11.27;66.49;99851.44;5051536;28;20024;-77
2023/01/05 10:53:36;;;;;;;32.10;27.13;;;;;;;10.56;66.32;99734.44;5051421;28;20107;-78
2023/01/05 10:56:22;;;;;;;28.30;23.15;;;;;;;10.42;65.70;99700.88;5050055;28;20032;-77
2023/01/05 10:58:47;;;;;;;31.85;25.27;;;;;;;11.19;65.92;99844.41;5050959;28;20063;-77
2023/01/05 11:01:29;;;;;;;31.40;26.30;;;;;;;11.32;65.38;99842.00;5039028;28;20474;-77
2023/01/05 11:04:04;;;;;;;29.35;23.67;;;;;;;10.94;65.38;99776.81;5051192;28;20013;-79
2023/01/05 11:06:33;;;;;;;32.85;26.13;;;;;;;11.07;65.75;99790.25;5051488;28;20028;-78
2023/01/05 11:09:20;;;;;;;32.38;25.48;;;;;;;9.26;64.95;99500.22;5049491;28;20021;-78
2023/01/05 11:12:00;;;;;;;30.10;24.00;;;;;;;10.55;65.27;99701.13;5040624;28;20498;-77
2023/01/05 11:14:28;;;;;;;28.42;22.15;;;;;;;11.30;65.34;99812.28;5034012;28;20025;-77
2023/01/05 11:17:00;;;;;;;28.05;24.23;;;;;;;11.40;64.73;99831.38;5051276;28;20028;-77
2023/01/05 11:19:48;;;;;;;32.60;26.70;;;;;;;11.34;64.63;99795.06;5049872;28;20025;-77
2023/01/05 11:22:33;;;;;;;33.42;26.05;;;;;;;11.38;65.35;99800.81;5051282;28;20033;-78
2023/01/05 11:25:28;;;;;;;26.73;22.55;;;;;;;11.44;64.37;99806.22;5051023;28;20489;-77
2023/01/05 11:28:09;;;;;;;27.05;22.85;;;;;;;11.47;65.07;99799.75;5050888;28;20033;-77
2023/01/05 11:30:35;;;;;;;26.05;22.75;;;;;;;10.74;64.54;99674.25;5051037;28;20021;-77
2023/01/05 11:33:01;;;;;;;31.58;23.95;;;;;;;10.78;64.53;99670.25;5050965;28;20413;-78
2023/01/05 11:35:33;;;;;;;26.90;21.35;;;;;;;11.56;64.18;99795.22;5049995;28;20037;-77
2023/01/05 11:37:59;;;;;;;26.08;22.40;;;;;;;11.62;64.10;99789.22;5046908;28;20033;-77
2023/01/05 11:40:29;;;;;;;28.23;24.30;;;;;;;11.67;64.11;99803.53;5036235;28;20039;-77
2023/01/05 11:42:54;;;;;;;28.30;22.02;;;;;;;11.41;64.26;99735.19;5053752;28;20021;-78
2023/01/05 11:45:33;;;;;;;23.52;20.95;;;;;;;11.80;63.76;99784.44;5054106;28;20086;-77
2023/01/05 11:48:02;;;;;;;23.15;19.58;;;;;;;11.07;63.62;99656.31;5047559;28;20027;-78
2023/01/05 11:50:32;;;;;;;27.67;21.52;;;;;;;11.89;63.43;99770.16;5038501;28;20120;-77
2023/01/05 11:53:01;;;;;;;27.73;21.98;;;;;;;11.63;63.02;99720.28;5048954;28;20040;-77
2023/01/05 11:55:37;;;;;;;25.15;20.40;;;;;;;11.96;63.12;99760.50;5034869;28;20574;-77
2023/01/05 11:58:20;;;;;;;26.70;23.27;;;;;;;11.99;63.09;99746.91;5034634;28;20061;-77
2023/01/05 12:01:06;;;;;;;41.10;26.33;;;;;;;12.00;63.10;99753.03;5034509;28;20040;-76